Historique des mesures à Cassis (13260), France
Quotidien Résumé Avril 26, 2018 Unités:  Métrique    US   Métrique/US
« Précédent (Jour)
Suivant (Jour) »
Quotidien Hebdomadaire Mensuel Annuel Période au choix
  Maximum: Minimum: Moyenne:
Température: TemperatureC °C 17.1 °C 19.4 °C
Point de rosée: DewpointC °C 8.4 °C 10.6 °C
Humidité: Humidity % 38 % 55 %
Vitesse du vent: 0 km/h 0 km/h 13.8 km/h
Rafales: 0 km/h - -
Vent:- - WNW
Pression: PressurehPa hPa 1006.7 hPa -
Précipitations: 0.0 mm    
Historical Graphs
 
 
Mesures pour : Avril 26, 2018
Heure Temperature Point de rosée Pression Vent Vitesse du vent Rafales Humidité Pluie (par heure) Conditions
TemperatureC °C DewpointC °C PressurehPa hPa Calm     Humidity % HourlyPrecipMM mm SoftwareType W/m2
00:10 17.4 °C 13.9 °C 1012.4 hPa Calm     80 % 0.0 mm open2300-1.11 W/m2
01:10 17.2 °C 13.7 °C 1012.1 hPa Calm   3.4 km/h 80 % 0.0 mm open2300-1.11 W/m2
02:10 17.1 °C 13.6 °C 1011.4 hPa Calm   2.9 km/h 80 % 0.0 mm open2300-1.11 W/m2
03:10 17.3 °C 13.2 °C 1010.4 hPa ESE 3.4 km/h 3.4 km/h 77 % 0.0 mm open2300-1.11 W/m2
04:10 17.9 °C 12.8 °C 1009.7 hPa WNW 23 km/h 23 km/h 72 % 0.0 mm open2300-1.11 W/m2
05:10 17.9 °C 12.2 °C 1009.7 hPa NNW 23 km/h 27.2 km/h 69 % 0.0 mm open2300-1.11 W/m2
06:12 17.4 °C 10.7 °C 1009.7 hPa NW 9.8 km/h 26.2 km/h 65 % 0.0 mm open2300-1.11 W/m2
07:12 17.3 °C 10.4 °C 1009.7 hPa NW 30.7 km/h 47.3 km/h 64 % 0.0 mm open2300-1.11 W/m2
08:11 19.6 °C 11.1 °C 1010.0 hPa WNW 26.7 km/h 42.6 km/h 58 % 0.0 mm open2300-1.11 W/m2
09:11 18.3 °C 10.1 °C 1010.7 hPa North 6.4 km/h 10.3 km/h 59 % 0.0 mm open2300-1.11 W/m2
10:12 19.1 °C 10.9 °C 1010.4 hPa NW 9.8 km/h 9.8 km/h 59 % 0.0 mm open2300-1.11 W/m2
11:12 21.2 °C 11.5 °C 1010.0 hPa NNW 14.5 km/h 14.5 km/h 54 % 0.0 mm open2300-1.11 W/m2
12:11 22.4 °C 11.4 °C 1009.7 hPa WNW 51.5 km/h 51.5 km/h 50 % 0.0 mm open2300-1.11 W/m2
13:11 23.3 °C 11.6 °C 1009.4 hPa WNW 33.6 km/h 33.6 km/h 48 % 0.0 mm open2300-1.11 W/m2
14:11 24.1 °C 11.4 °C 1008.7 hPa NNW 11.6 km/h 16.3 km/h 45 % 0.0 mm open2300-1.11 W/m2
15:11 24.3 °C 10.9 °C 1008.0 hPa NW 10.3 km/h 19.6 km/h 43 % 0.0 mm open2300-1.11 W/m2
16:12 24.4 °C 9.6 °C 1007.0 hPa NW 30.1 km/h 30.1 km/h 39 % 0.0 mm open2300-1.11 W/m2
17:10 24.5 °C 9.2 °C 1007.0 hPa NNW 12.7 km/h 15 km/h 38 % 0.0 mm open2300-1.11 W/m2
18:11 24.0 °C 8.8 °C 1006.7 hPa WNW 31.9 km/h 31.9 km/h 38 % 0.0 mm open2300-1.11 W/m2
19:10 23.4 °C 8.6 °C 1007.0 hPa West 10.3 km/h 26.7 km/h 39 % 0.0 mm open2300-1.11 W/m2
20:10 21.9 °C 8.4 °C 1007.0 hPa NW 3.4 km/h 16.9 km/h 42 % 0.0 mm open2300-1.11 W/m2
21:10 20.2 °C 10.0 °C 1008.0 hPa Calm   7.6 km/h 52 % 0.0 mm open2300-1.11 W/m2
22:10 18.4 °C 11.7 °C 1008.4 hPa WNW 4.7 km/h 5.6 km/h 65 % 0.0 mm open2300-1.11 W/m2
23:10 17.4 °C 10.5 °C 1008.4 hPa Calm     64 % 0.0 mm open2300-1.11 W/m2
Observations météo à CASSIS
WU-History script by Weather Underground - 1 mb